Time;durP1;ratioP1;P1;durP2;ratioP2;P2;SDS_P1;SDS_P2;PMS_P1;PMS_P2;Temp;Humidity;BMP_temperature;BMP_pressure;BME280_temperature;BME280_humidity;BME280_pressure;Samples;Min_cycle;Max_cycle;Signal;HPM_P1;HPM_P2
2022/05/28 00:00:12;;;;;;;17.15;5.20;;;14.20;99.90;;;;;;5072672;28;20020;-76
2022/05/28 00:02:38;;;;;;;21.27;4.97;;;14.20;99.90;;;;;;5072584;28;20033;-76
2022/05/28 00:05:05;;;;;;;18.35;4.82;;;14.10;99.90;;;;;;5092254;28;20358;-75
2022/05/28 00:07:30;;;;;;;17.23;5.22;;;14.20;99.90;;;;;;5092942;28;20034;-76
2022/05/28 00:09:56;;;;;;;25.27;6.15;;;13.80;99.90;;;;;;5092845;28;20477;-77
2022/05/28 00:12:28;;;;;;;18.67;4.80;;;13.60;99.90;;;;;;5091779;28;20175;-79
2022/05/28 00:14:55;;;;;;;25.08;5.20;;;13.50;99.90;;;;;;5092566;28;20107;-76
2022/05/28 00:17:28;;;;;;;22.45;5.47;;;13.60;99.90;;;;;;5093100;28;20047;-80
2022/05/28 00:20:00;;;;;;;22.08;5.72;;;13.50;99.90;;;;;;5091763;28;20086;-77
2022/05/28 00:22:26;;;;;;;20.90;5.18;;;13.60;99.90;;;;;;5092699;28;20433;-79
2022/05/28 00:24:51;;;;;;;17.02;5.20;;;13.40;99.90;;;;;;5092828;28;20031;-77
2022/05/28 00:27:18;;;;;;;22.67;5.28;;;13.30;99.90;;;;;;5092552;28;20024;-78
2022/05/28 00:29:43;;;;;;;22.80;5.60;;;13.20;99.90;;;;;;5092734;28;20047;-79
2022/05/28 00:32:09;;;;;;;21.27;6.15;;;13.50;99.90;;;;;;5092543;28;20040;-78
2022/05/28 00:34:36;;;;;;;25.45;5.53;;;13.70;99.90;;;;;;5092438;28;20097;-77
2022/05/28 00:37:03;;;;;;;18.50;5.57;;;13.80;99.90;;;;;;5092968;28;20032;-78
2022/05/28 00:39:29;;;;;;;23.58;6.00;;;13.70;99.90;;;;;;5092849;28;20042;-77
2022/05/28 00:41:57;;;;;;;25.20;5.70;;;13.80;99.90;;;;;;5092785;28;20439;-78
2022/05/28 00:44:24;;;;;;;18.35;5.80;;;13.40;99.90;;;;;;5092646;28;20102;-78
2022/05/28 00:46:52;;;;;;;22.08;5.43;;;13.10;99.90;;;;;;5090235;28;20388;-78
2022/05/28 00:49:23;;;;;;;21.17;5.15;;;13.20;99.90;;;;;;5084801;28;20020;-80
2022/05/28 00:51:52;;;;;;;20.48;5.45;;;13.20;99.90;;;;;;5072421;28;20028;-80
2022/05/28 00:54:18;;;;;;;18.70;5.75;;;13.20;99.90;;;;;;5072163;28;20024;-80
2022/05/28 00:56:44;;;;;;;29.10;6.40;;;13.10;99.90;;;;;;5072160;28;20021;-80
2022/05/28 00:59:10;;;;;;;27.98;5.85;;;12.90;99.90;;;;;;5072180;28;20021;-80
2022/05/28 01:01:41;;;;;;;19.45;5.40;;;12.90;99.90;;;;;;5053911;28;20485;-79
2022/05/28 01:04:15;;;;;;;22.60;5.75;;;12.90;99.90;;;;;;5084333;28;20476;-80
2022/05/28 01:06:46;;;;;;;21.95;6.03;;;12.50;99.90;;;;;;5092753;28;20529;-80
2022/05/28 01:09:30;;;;;;;23.35;6.32;;;12.90;99.90;;;;;;5090877;28;20039;-79
2022/05/28 01:12:02;;;;;;;28.17;6.07;;;12.80;99.90;;;;;;5094075;28;20111;-79
2022/05/28 01:14:36;;;;;;;20.70;5.55;;;12.80;99.90;;;;;;5095794;28;20028;-79
2022/05/28 01:17:24;;;;;;;21.45;6.28;;;12.80;99.90;;;;;;5095885;28;20072;-80
2022/05/28 01:19:57;;;;;;;23.05;6.28;;;12.70;99.90;;;;;;5085843;28;20048;-80
2022/05/28 01:23:09;;;;;;;21.95;6.40;;;12.80;99.90;;;;;;5095402;28;20036;-80
2022/05/28 01:26:02;;;;;;;24.53;5.83;;;12.60;99.90;;;;;;5077890;28;20044;-80
2022/05/28 01:28:44;;;;;;;19.90;6.03;;;12.50;99.90;;;;;;5074193;28;20444;-80
2022/05/28 01:31:11;;;;;;;25.17;7.00;;;12.50;99.90;;;;;;5082499;28;20035;-80
2022/05/28 01:33:41;;;;;;;21.38;5.93;;;12.50;99.90;;;;;;5095563;28;20525;-79
2022/05/28 01:36:09;;;;;;;23.30;7.28;;;12.40;99.90;;;;;;5089088;28;20082;-80
2022/05/28 01:38:38;;;;;;;23.13;7.55;;;12.40;99.90;;;;;;5087434;28;20047;-80
2022/05/28 01:41:06;;;;;;;19.55;7.13;;;12.30;99.90;;;;;;5093609;28;20392;-80
2022/05/28 01:43:37;;;;;;;22.52;7.00;;;12.20;99.90;;;;;;5094956;28;20028;-80
2022/05/28 01:46:05;;;;;;;21.77;6.30;;;12.40;99.90;;;;;;5095040;28;20044;-79
2022/05/28 01:48:31;;;;;;;20.88;6.30;;;12.50;99.90;;;;;;5092717;28;20079;-80
2022/05/28 01:50:58;;;;;;;25.67;6.55;;;12.70;99.90;;;;;;5090636;28;20036;-81
2022/05/28 01:56:11;;;;;;;16.25;5.95;;;12.40;99.90;;;;;;5090378;28;20463;-81
2022/05/28 01:58:37;;;;;;;21.90;6.38;;;12.40;99.90;;;;;;5094730;28;20096;-81
2022/05/28 02:01:05;;;;;;;21.13;6.78;;;12.30;99.90;;;;;;5094730;28;20537;-81
2022/05/28 02:03:33;;;;;;;21.88;6.35;;;12.30;99.90;;;;;;5094546;28;20032;-80
2022/05/28 02:05:59;;;;;;;22.55;7.22;;;12.20;99.90;;;;;;5093473;28;20019;-80
2022/05/28 02:08:28;;;;;;;29.60;5.93;;;12.10;99.90;;;;;;5094395;28;20369;-80
2022/05/28 02:11:07;;;;;;;19.73;6.22;;;12.10;99.90;;;;;;5094930;28;20020;-80
2022/05/28 02:13:54;;;;;;;25.05;6.95;;;12.20;99.90;;;;;;5094175;28;20107;-81
2022/05/28 02:16:34;;;;;;;19.05;6.57;;;12.20;99.90;;;;;;5094634;28;20115;-77
2022/05/28 02:19:04;;;;;;;26.02;6.90;;;11.90;99.90;;;;;;5094624;28;20028;-81
2022/05/28 02:21:43;;;;;;;27.08;6.72;;;12.20;99.90;;;;;;5094395;28;20047;-81
2022/05/28 02:24:20;;;;;;;23.75;7.50;;;12.40;99.90;;;;;;5093335;28;20032;-80
2022/05/28 02:26:54;;;;;;;23.63;6.40;;;12.70;99.90;;;;;;5092691;28;20032;-81
2022/05/28 02:29:22;;;;;;;30.23;7.35;;;12.90;99.90;;;;;;5082929;28;20024;-81
2022/05/28 02:31:49;;;;;;;29.73;7.35;;;12.90;99.90;;;;;;5092717;28;20384;-81
2022/05/28 02:34:16;;;;;;;28.77;6.60;;;12.60;99.90;;;;;;5094433;28;20060;-80
2022/05/28 02:36:43;;;;;;;28.08;7.70;;;12.40;99.90;;;;;;5093969;28;20028;-81
2022/05/28 02:39:09;;;;;;;29.60;6.72;;;12.40;99.90;;;;;;5093910;28;20043;-81
2022/05/28 02:41:35;;;;;;;19.95;6.30;;;12.40;99.90;;;;;;5092571;28;20025;-80
2022/05/28 02:44:02;;;;;;;39.65;8.32;;;12.20;99.90;;;;;;5093829;28;20024;-81
2022/05/28 02:46:28;;;;;;;22.48;6.43;;;12.40;99.90;;;;;;5093994;28;20464;-81
2022/05/28 02:48:54;;;;;;;33.45;7.63;;;12.60;99.90;;;;;;5090932;28;20074;-81
2022/05/28 02:51:22;;;;;;;20.80;7.13;;;12.40;99.90;;;;;;5093991;28;20028;-81
2022/05/28 02:53:49;;;;;;;22.30;6.53;;;12.30;99.90;;;;;;5094207;28;20465;-80
2022/05/28 02:56:16;;;;;;;20.73;5.88;;;12.30;99.90;;;;;;5092261;28;20464;-81
2022/05/28 02:58:42;;;;;;;27.63;6.35;;;11.90;99.90;;;;;;5093653;28;20023;-81
2022/05/28 03:01:23;;;;;;;21.13;7.10;;;11.70;99.90;;;;;;5093610;28;20119;-77
2022/05/28 03:03:49;;;;;;;27.43;7.20;;;12.00;99.90;;;;;;5093576;28;20036;-78
2022/05/28 03:06:15;;;;;;;29.65;7.55;;;12.20;99.90;;;;;;5093308;28;20387;-80
2022/05/28 03:08:41;;;;;;;22.83;6.45;;;12.10;99.90;;;;;;5093385;28;20416;-81
2022/05/28 03:11:06;;;;;;;26.30;6.72;;;12.20;99.90;;;;;;5093273;28;20092;-80
2022/05/28 03:13:32;;;;;;;25.55;6.55;;;12.30;99.90;;;;;;5093774;28;20112;-79
2022/05/28 03:15:58;;;;;;;21.83;6.68;;;12.30;99.90;;;;;;5093412;28;20036;-79
2022/05/28 03:18:24;;;;;;;28.90;6.63;;;12.20;99.90;;;;;;5092063;28;20028;-78
2022/05/28 03:20:49;;;;;;;21.73;6.95;;;11.80;99.90;;;;;;5091967;28;20068;-80
2022/05/28 03:23:15;;;;;;;29.83;7.03;;;11.80;99.90;;;;;;5093083;28;20034;-79
2022/05/28 03:25:41;;;;;;;24.17;6.40;;;11.70;99.90;;;;;;5093168;28;20020;-80
2022/05/28 03:28:07;;;;;;;26.27;7.05;;;11.40;99.90;;;;;;5080474;28;20545;-77
2022/05/28 03:30:32;;;;;;;17.00;6.20;;;11.70;99.90;;;;;;5091721;28;20153;-80
2022/05/28 03:32:58;;;;;;;27.30;7.75;;;12.10;99.90;;;;;;5091853;28;20495;-77
2022/05/28 03:35:24;;;;;;;28.85;6.85;;;11.80;99.90;;;;;;5092575;28;20032;-81
2022/05/28 03:37:49;;;;;;;28.30;6.97;;;11.50;99.90;;;;;;5093152;28;20443;-81
2022/05/28 03:40:15;;;;;;;27.33;6.82;;;11.50;99.90;;;;;;5092611;28;20425;-81
2022/05/28 03:42:41;;;;;;;21.58;5.85;;;11.70;99.90;;;;;;5092840;28;20034;-79
2022/05/28 03:45:07;;;;;;;22.05;5.57;;;11.50;99.90;;;;;;5092917;28;20031;-80
2022/05/28 03:47:33;;;;;;;27.48;6.55;;;11.60;99.90;;;;;;5092841;28;20071;-81
2022/05/28 03:49:59;;;;;;;20.98;5.72;;;11.50;99.90;;;;;;5090120;28;20034;-82
2022/05/28 03:52:24;;;;;;;22.05;6.07;;;11.40;99.90;;;;;;5093005;28;20028;-81
2022/05/28 03:54:50;;;;;;;26.33;5.47;;;11.60;99.90;;;;;;5091210;28;20431;-80
2022/05/28 03:57:29;;;;;;;17.65;5.93;;;11.80;99.90;;;;;;5092786;28;20065;-79
2022/05/28 03:59:57;;;;;;;18.77;5.47;;;11.90;99.90;;;;;;5092937;28;20024;-80
2022/05/28 04:02:23;;;;;;;21.73;4.88;;;11.90;99.90;;;;;;5092724;28;20059;-81
2022/05/28 04:04:49;;;;;;;28.02;6.40;;;12.20;99.90;;;;;;5092533;28;20032;-80
2022/05/28 04:07:15;;;;;;;20.73;5.53;;;12.50;99.90;;;;;;5093159;28;20056;-80
2022/05/28 04:09:41;;;;;;;19.20;4.70;;;12.50;99.90;;;;;;5092657;28;20052;-82
2022/05/28 04:12:07;;;;;;;18.77;5.47;;;12.60;99.90;;;;;;5091643;28;20522;-82
2022/05/28 04:14:33;;;;;;;24.25;5.93;;;12.30;99.90;;;;;;5092483;28;20071;-80
2022/05/28 04:16:58;;;;;;;19.83;4.70;;;12.00;99.90;;;;;;5092417;28;20052;-81
2022/05/28 04:19:24;;;;;;;17.75;5.07;;;11.90;99.90;;;;;;5092772;28;20043;-81
2022/05/28 04:21:50;;;;;;;16.35;4.13;;;12.00;99.90;;;;;;5092621;28;20036;-81
2022/05/28 04:24:16;;;;;;;18.02;5.47;;;12.00;99.90;;;;;;5092386;28;20024;-80
2022/05/28 04:26:42;;;;;;;23.42;5.30;;;12.00;99.90;;;;;;5091500;28;20388;-81
2022/05/28 04:29:08;;;;;;;23.02;4.95;;;11.90;99.90;;;;;;5079244;28;20016;-81
2022/05/28 04:31:34;;;;;;;18.25;4.57;;;12.20;99.90;;;;;;5092479;28;20027;-81
2022/05/28 04:34:00;;;;;;;15.88;4.20;;;12.20;99.90;;;;;;5092578;28;20031;-81
2022/05/28 04:36:26;;;;;;;26.15;5.13;;;12.20;99.90;;;;;;5092287;28;20109;-81
2022/05/28 04:38:52;;;;;;;11.75;4.30;;;12.20;99.90;;;;;;5092103;28;20016;-81
2022/05/28 04:41:18;;;;;;;17.38;5.20;;;12.40;99.90;;;;;;5092289;28;20379;-81
2022/05/28 04:43:43;;;;;;;18.40;4.63;;;12.60;99.90;;;;;;5092283;28;20067;-81
2022/05/28 04:46:09;;;;;;;23.55;6.25;;;12.80;99.90;;;;;;5092875;28;20039;-80
2022/05/28 04:48:35;;;;;;;15.10;3.97;;;12.70;99.90;;;;;;5094473;28;20115;-81
2022/05/28 04:51:01;;;;;;;16.52;3.90;;;13.10;99.90;;;;;;5095244;28;20033;-81
2022/05/28 04:53:27;;;;;;;17.60;4.38;;;12.80;99.90;;;;;;5096027;28;20024;-79
2022/05/28 04:55:53;;;;;;;23.33;4.80;;;12.50;99.90;;;;;;5094585;28;20032;-82
2022/05/28 04:58:19;;;;;;;17.17;3.85;;;12.40;99.90;;;;;;5096012;28;20024;-81
2022/05/28 05:00:46;;;;;;;21.80;4.28;;;12.20;99.90;;;;;;5095795;28;20020;-80
2022/05/28 05:03:12;;;;;;;14.27;3.85;;;12.40;99.90;;;;;;5095894;28;20024;-80
2022/05/28 05:05:38;;;;;;;15.23;4.15;;;12.40;99.90;;;;;;5095906;28;20020;-79
2022/05/28 05:08:04;;;;;;;15.40;3.70;;;12.50;99.90;;;;;;5095423;28;20384;-80
2022/05/28 05:10:31;;;;;;;17.08;4.45;;;12.50;99.90;;;;;;5094631;28;20376;-80
2022/05/28 05:12:58;;;;;;;19.73;4.20;;;12.40;99.90;;;;;;5095714;28;20032;-79
2022/05/28 05:15:23;;;;;;;20.58;3.53;;;13.00;99.90;;;;;;5094283;28;20036;-81
2022/05/28 05:17:49;;;;;;;19.80;4.05;;;13.40;99.90;;;;;;5094779;28;20036;-80
2022/05/28 05:20:16;;;;;;;16.95;3.95;;;13.30;99.90;;;;;;5095761;28;20031;-81
2022/05/28 05:22:42;;;;;;;18.55;4.22;;;13.10;99.90;;;;;;5094070;28;20069;-79
2022/05/28 05:25:09;;;;;;;10.55;3.22;;;13.00;99.90;;;;;;5094355;28;20094;-80
2022/05/28 05:27:35;;;;;;;14.48;3.38;;;13.10;99.90;;;;;;5086907;28;20044;-76
2022/05/28 05:30:01;;;;;;;18.48;3.30;;;13.40;99.90;;;;;;5089745;28;20021;-80
2022/05/28 05:32:27;;;;;;;18.17;4.07;;;13.60;99.90;;;;;;5095384;28;20040;-79
2022/05/28 05:34:53;;;;;;;19.55;3.92;;;13.50;99.90;;;;;;5094325;28;20032;-80
2022/05/28 05:37:20;;;;;;;18.60;3.13;;;13.10;99.90;;;;;;5093871;28;20032;-79
2022/05/28 05:39:46;;;;;;;15.70;4.50;;;13.10;99.90;;;;;;5094222;28;20468;-80
2022/05/28 05:42:11;;;;;;;13.48;3.75;;;13.40;99.90;;;;;;5094966;28;20387;-80
2022/05/28 05:44:38;;;;;;;15.45;3.90;;;13.60;99.90;;;;;;5095235;28;20032;-80
2022/05/28 05:47:05;;;;;;;15.90;4.18;;;13.60;99.90;;;;;;5094935;28;20032;-81
2022/05/28 05:49:31;;;;;;;14.10;3.20;;;13.50;99.90;;;;;;5092748;28;20028;-79
2022/05/28 05:51:57;;;;;;;19.02;3.60;;;13.50;99.90;;;;;;5095065;28;20052;-78
2022/05/28 05:54:26;;;;;;;21.98;4.22;;;13.80;99.90;;;;;;5095535;28;20024;-80
2022/05/28 05:56:53;;;;;;;16.25;3.40;;;13.60;99.90;;;;;;5093983;28;20031;-79
2022/05/28 05:59:20;;;;;;;11.15;2.53;;;13.80;99.90;;;;;;5096161;28;20507;-80
2022/05/28 06:01:46;;;;;;;15.13;2.67;;;13.80;99.90;;;;;;5094174;28;20384;-80
2022/05/28 06:04:12;;;;;;;13.90;2.88;;;13.90;99.90;;;;;;5095588;28;20027;-77
2022/05/28 06:06:38;;;;;;;19.83;3.25;;;13.80;99.90;;;;;;5107624;28;20095;-78
2022/05/28 06:09:05;;;;;;;15.18;3.13;;;14.00;99.90;;;;;;5110492;28;20024;-79
2022/05/28 06:11:32;;;;;;;11.20;2.35;;;14.00;99.90;;;;;;5106136;28;20035;-81
2022/05/28 06:13:58;;;;;;;14.23;2.20;;;14.20;99.90;;;;;;5096109;28;20020;-80
2022/05/28 06:16:24;;;;;;;11.27;2.25;;;14.20;99.90;;;;;;5094740;28;20027;-80
2022/05/28 06:19:06;;;;;;;10.77;1.70;;;14.20;99.90;;;;;;5095914;28;20035;-80
2022/05/28 06:21:31;;;;;;;12.18;2.38;;;14.20;99.90;;;;;;5094653;28;20039;-79
2022/05/28 06:24:03;;;;;;;12.02;2.00;;;14.20;99.90;;;;;;5094199;28;20119;-78
2022/05/28 06:26:37;;;;;;;9.30;2.10;;;14.40;99.90;;;;;;5076808;28;20038;-77
2022/05/28 06:29:03;;;;;;;11.23;2.17;;;14.50;99.90;;;;;;5094608;28;20012;-77
2022/05/28 06:31:29;;;;;;;10.18;1.95;;;14.40;99.90;;;;;;5094645;28;20438;-78
2022/05/28 06:33:55;;;;;;;9.38;2.20;;;14.50;99.90;;;;;;5088996;28;20024;-79
2022/05/28 06:36:20;;;;;;;7.97;1.63;;;14.50;99.90;;;;;;5088524;28;20487;-79
2022/05/28 06:38:46;;;;;;;12.48;2.13;;;14.60;99.90;;;;;;5078141;28;20123;-79
2022/05/28 06:41:13;;;;;;;11.25;2.15;;;14.70;99.90;;;;;;5086788;28;20034;-78
2022/05/28 06:43:39;;;;;;;15.60;2.17;;;14.70;99.90;;;;;;5089360;28;20020;-78
2022/05/28 06:46:07;;;;;;;7.05;1.67;;;14.70;99.90;;;;;;5087164;28;20039;-78
2022/05/28 06:48:33;;;;;;;8.73;2.10;;;14.80;99.90;;;;;;5082687;28;20035;-78
2022/05/28 06:51:02;;;;;;;6.45;1.30;;;15.10;99.90;;;;;;5082461;28;20403;-78
2022/05/28 06:53:37;;;;;;;6.82;1.77;;;15.30;99.90;;;;;;5078006;28;20456;-79
2022/05/28 06:56:04;;;;;;;4.50;1.20;;;15.60;99.90;;;;;;5076439;28;20092;-78
2022/05/28 06:58:30;;;;;;;8.55;1.60;;;15.60;99.90;;;;;;5084893;28;20054;-77
2022/05/28 07:00:56;;;;;;;6.63;1.70;;;15.50;99.90;;;;;;5084849;28;20096;-79
2022/05/28 07:03:25;;;;;;;7.38;1.60;;;15.80;99.90;;;;;;5083452;28;20031;-78
2022/05/28 07:05:51;;;;;;;6.35;1.23;;;15.60;99.90;;;;;;5098483;28;20102;-78
2022/05/28 07:08:18;;;;;;;12.38;1.20;;;15.30;99.90;;;;;;5087913;28;20056;-78
2022/05/28 07:10:47;;;;;;;4.85;1.30;;;15.70;99.90;;;;;;5086538;28;20031;-78
2022/05/28 07:13:14;;;;;;;7.00;1.60;;;15.80;99.90;;;;;;5071964;28;20095;-78
2022/05/28 07:15:40;;;;;;;7.32;1.60;;;16.00;99.90;;;;;;5092326;28;20080;-79
2022/05/28 07:18:07;;;;;;;7.60;1.67;;;15.60;99.90;;;;;;5094092;28;20385;-79
2022/05/28 07:20:33;;;;;;;10.73;1.85;;;15.90;99.90;;;;;;5089772;28;20379;-79
2022/05/28 07:22:58;;;;;;;5.50;1.50;;;15.80;99.90;;;;;;5083901;28;20038;-78
2022/05/28 07:25:24;;;;;;;8.40;3.40;;;15.90;99.90;;;;;;5087816;28;20024;-79
2022/05/28 07:27:50;;;;;;;6.20;1.60;;;16.20;99.90;;;;;;5075092;28;20484;-79
2022/05/28 07:30:16;;;;;;;10.82;1.27;;;15.80;99.90;;;;;;5101372;28;20023;-75
2022/05/28 07:32:41;;;;;;;13.43;1.83;;;15.90;99.90;;;;;;5103915;28;20020;-78
2022/05/28 07:35:08;;;;;;;7.53;1.20;;;15.80;99.90;;;;;;5102004;28;20034;-77
2022/05/28 07:37:34;;;;;;;9.25;1.23;;;15.90;99.90;;;;;;5095244;28;20039;-78
2022/05/28 07:40:00;;;;;;;8.82;1.65;;;16.10;99.90;;;;;;5091325;28;20116;-78
2022/05/28 07:42:29;;;;;;;8.95;1.48;;;15.80;99.90;;;;;;5104493;28;20508;-78
2022/05/28 07:44:55;;;;;;;4.47;1.08;;;15.70;99.90;;;;;;5105432;28;20476;-78
2022/05/28 07:47:21;;;;;;;5.15;1.35;;;15.70;99.90;;;;;;5098208;28;20138;-78
2022/05/28 07:49:46;;;;;;;5.65;1.23;;;15.60;99.90;;;;;;5082531;28;20036;-78
2022/05/28 07:52:12;;;;;;;7.97;1.70;;;15.80;99.90;;;;;;5073554;28;20117;-78
2022/05/28 07:54:38;;;;;;;9.48;1.50;;;15.60;99.90;;;;;;5096483;28;20008;-78
2022/05/28 07:57:05;;;;;;;6.07;1.30;;;15.60;99.90;;;;;;5096320;28;20023;-77
2022/05/28 07:59:31;;;;;;;8.00;1.20;;;15.70;99.90;;;;;;5079600;28;20020;-78
2022/05/28 08:01:57;;;;;;;6.43;1.30;;;15.80;99.90;;;;;;5075480;28;20044;-77
2022/05/28 08:04:22;;;;;;;9.77;1.30;;;16.30;99.90;;;;;;5088814;28;20526;-78
2022/05/28 08:06:48;;;;;;;5.32;1.20;;;16.30;99.90;;;;;;5098006;28;20468;-77
2022/05/28 08:09:14;;;;;;;5.13;1.85;;;16.40;99.90;;;;;;5082223;28;20365;-78
2022/05/28 08:11:40;;;;;;;9.00;1.73;;;16.40;99.80;;;;;;5076170;28;20074;-78
2022/05/28 08:14:06;;;;;;;6.60;1.20;;;16.50;99.90;;;;;;5071819;28;20043;-77
2022/05/28 08:16:33;;;;;;;2.20;0.70;;;16.80;99.90;;;;;;5072294;28;20044;-78
2022/05/28 08:18:59;;;;;;;14.07;2.03;;;16.70;98.40;;;;;;5097903;28;20020;-76
2022/05/28 08:24:10;;;;;;;8.88;1.80;;;16.50;99.50;;;;;;5079309;28;20138;-78
2022/05/28 08:26:38;;;;;;;4.97;1.20;;;16.40;99.90;;;;;;5081198;28;20035;-78
2022/05/28 08:29:05;;;;;;;6.32;1.20;;;16.80;99.30;;;;;;5087263;28;20020;-78
2022/05/28 08:31:31;;;;;;;4.18;1.40;;;16.90;96.00;;;;;;5110834;28;20499;-78
2022/05/28 08:33:57;;;;;;;3.53;0.80;;;16.90;96.60;;;;;;5103568;28;20024;-78
2022/05/28 08:36:24;;;;;;;3.75;0.90;;;16.70;97.70;;;;;;5101216;28;20032;-78
2022/05/28 08:38:51;;;;;;;5.53;1.02;;;16.90;97.60;;;;;;5098807;28;20167;-78
2022/05/28 08:41:24;;;;;;;8.10;1.40;;;17.10;98.70;;;;;;5102307;28;20267;-78
2022/05/28 08:44:02;;;;;;;3.88;1.05;;;17.00;98.10;;;;;;5108122;28;20035;-78
2022/05/28 08:46:32;;;;;;;4.35;1.25;;;16.90;97.50;;;;;;5102533;28;20426;-78
2022/05/28 08:48:59;;;;;;;5.72;1.02;;;16.00;97.70;;;;;;5092976;28;20019;-78
2022/05/28 08:51:36;;;;;;;3.00;1.13;;;15.90;98.50;;;;;;5103564;28;20067;-78
2022/05/28 08:54:24;;;;;;;4.93;0.98;;;16.30;99.00;;;;;;5111013;28;20028;-78
2022/05/28 08:56:53;;;;;;;9.07;1.40;;;16.50;97.00;;;;;;5105560;28;20426;-75
2022/05/28 08:59:25;;;;;;;4.40;1.20;;;16.70;96.30;;;;;;5101392;28;20024;-75
2022/05/28 09:01:52;;;;;;;7.95;1.55;;;17.00;96.80;;;;;;5096295;28;20059;-76
2022/05/28 09:04:30;;;;;;;6.30;1.30;;;17.20;96.90;;;;;;5096853;28;20485;-76
2022/05/28 09:07:00;;;;;;;6.13;1.63;;;17.00;97.10;;;;;;5093871;28;20433;-78
2022/05/28 09:09:47;;;;;;;6.25;1.30;;;17.00;97.20;;;;;;5093485;28;20044;-78
2022/05/28 09:12:30;;;;;;;9.75;1.65;;;16.70;99.90;;;;;;5093674;28;20024;-77
2022/05/28 09:14:56;;;;;;;5.78;1.27;;;16.40;97.70;;;;;;5093616;28;20035;-75
2022/05/28 09:17:42;;;;;;;9.57;1.40;;;16.40;99.20;;;;;;5093954;28;20418;-77
2022/05/28 09:20:14;;;;;;;6.50;1.58;;;16.80;98.50;;;;;;5095721;28;20059;-77
2022/05/28 09:22:40;;;;;;;9.35;1.48;;;17.20;99.30;;;;;;5095555;28;20036;-78
2022/05/28 09:25:07;;;;;;;11.05;2.72;;;17.50;98.30;;;;;;5094117;28;20491;-76
2022/05/28 09:27:47;;;;;;;5.75;1.17;;;17.40;97.70;;;;;;5087274;28;20035;-76
2022/05/28 09:30:43;;;;;;;6.45;1.35;;;17.10;97.30;;;;;;5079245;28;20062;-77
2022/05/28 09:33:37;;;;;;;4.55;1.38;;;16.70;97.50;;;;;;5071556;28;20059;-78
2022/05/28 09:36:42;;;;;;;7.95;1.20;;;16.90;98.70;;;;;;5076065;28;20066;-77
2022/05/28 09:39:36;;;;;;;10.90;1.95;;;17.10;97.80;;;;;;5087331;28;20048;-77
2022/05/28 09:42:06;;;;;;;6.97;1.40;;;17.40;97.90;;;;;;5091498;28;20608;-78
2022/05/28 09:44:41;;;;;;;7.15;1.27;;;17.70;97.20;;;;;;5088019;28;20020;-78
2022/05/28 09:47:13;;;;;;;5.75;0.93;;;17.60;96.70;;;;;;5074548;28;20036;-78
2022/05/28 09:50:05;;;;;;;;;;;18.00;96.10;;;;;;5085044;28;20024;-78
2022/05/28 09:54:16;;;;;;;5.45;1.52;;;17.90;95.60;;;;;;5079517;28;19909;-77
2022/05/28 09:55:20;;;;;;;3.90;0.82;;;17.60;95.30;;;;;;5082965;28;20033;-77
2022/05/28 09:57:52;;;;;;;4.85;1.05;;;17.70;95.90;;;;;;5077763;28;20056;-74
2022/05/28 10:00:21;;;;;;;6.25;1.40;;;17.40;95.30;;;;;;5094842;28;20035;-77
2022/05/28 10:05:54;;;;;;;7.40;1.25;;;18.00;95.60;;;;;;5079572;28;20033;-77
2022/05/28 10:08:28;;;;;;;5.82;1.27;;;17.70;95.10;;;;;;5072929;28;20032;-76
2022/05/28 10:10:59;;;;;;;5.00;1.30;;;17.70;94.00;;;;;;5073877;28;20117;-76
2022/05/28 10:13:25;;;;;;;5.35;0.95;;;17.20;94.80;;;;;;5073938;28;20025;-76
2022/05/28 10:15:50;;;;;;;9.05;1.48;;;17.40;95.40;;;;;;5074334;28;20043;-75
2022/05/28 10:18:19;;;;;;;4.63;1.98;;;17.20;95.40;;;;;;5072500;28;20021;-76
2022/05/28 10:21:07;;;;;;;5.40;1.27;;;17.20;95.20;;;;;;5074334;28;20031;-77
2022/05/28 10:23:37;;;;;;;8.95;1.33;;;16.90;95.40;;;;;;5073772;28;20032;-76
2022/05/28 10:26:04;;;;;;;6.68;1.48;;;16.60;96.10;;;;;;5073841;28;20016;-77
2022/05/28 10:28:44;;;;;;;6.53;1.40;;;17.10;96.10;;;;;;5075335;28;20082;-77
2022/05/28 10:31:40;;;;;;;6.13;1.50;;;17.20;95.00;;;;;;5094337;28;20381;-76
2022/05/28 10:34:07;;;;;;;10.82;1.45;;;17.00;94.80;;;;;;5091138;28;20499;-75
2022/05/28 10:36:35;;;;;;;13.70;1.48;;;17.30;96.60;;;;;;5087296;28;20024;-77
2022/05/28 10:39:10;;;;;;;10.55;1.85;;;18.50;95.00;;;;;;5077836;28;20029;-75
2022/05/28 10:41:37;;;;;;;10.55;2.13;;;18.90;94.30;;;;;;5079376;28;20033;-76
2022/05/28 10:44:04;;;;;;;7.63;1.60;;;18.90;94.70;;;;;;5073290;28;20083;-75
2022/05/28 10:47:04;;;;;;;7.47;1.45;;;18.80;94.30;;;;;;5089187;28;20051;-75
2022/05/28 10:49:41;;;;;;;7.18;1.75;;;18.40;94.30;;;;;;5079599;28;20033;-77
2022/05/28 10:52:24;;;;;;;8.20;1.60;;;18.80;95.70;;;;;;5080582;28;20028;-77
2022/05/28 10:55:08;;;;;;;11.05;1.83;;;18.80;94.60;;;;;;5082661;28;20027;-77
2022/05/28 10:57:40;;;;;;;13.20;3.28;;;18.40;95.00;;;;;;5089221;28;20976;-76
2022/05/28 11:00:19;;;;;;;6.47;1.73;;;18.00;94.00;;;;;;5082047;28;20024;-75
2022/05/28 11:03:16;;;;;;;10.32;1.58;;;18.10;95.30;;;;;;5086984;28;20041;-75
2022/05/28 11:06:23;;;;;;;8.77;1.45;;;18.10;94.80;;;;;;5085717;28;20028;-76
2022/05/28 11:09:17;;;;;;;5.78;1.30;;;18.00;94.90;;;;;;5084276;28;20533;-77
2022/05/28 11:12:25;;;;;;;9.40;1.73;;;17.80;96.00;;;;;;5079328;28;20033;-77
2022/05/28 11:15:18;;;;;;;7.57;1.75;;;17.00;96.90;;;;;;5082050;28;20123;-77
2022/05/28 11:17:53;;;;;;;13.88;1.88;;;17.50;96.70;;;;;;5081162;28;20039;-76
2022/05/28 11:20:40;;;;;;;5.18;1.38;;;18.20;96.80;;;;;;5076033;28;20112;-77
2022/05/28 11:23:38;;;;;;;7.13;2.00;;;17.70;96.30;;;;;;5070685;28;20473;-77
2022/05/28 11:26:36;;;;;;;12.90;2.03;;;17.40;96.50;;;;;;5072681;28;20112;-77
2022/05/28 11:29:26;;;;;;;7.80;1.50;;;17.30;97.50;;;;;;5078650;28;20039;-76
2022/05/28 11:32:03;;;;;;;8.25;1.38;;;17.70;96.50;;;;;;5074194;28;20028;-78
2022/05/28 11:34:53;;;;;;;9.55;1.80;;;17.80;95.70;;;;;;5080626;28;20035;-77
2022/05/28 11:37:37;;;;;;;6.78;1.42;;;17.90;95.10;;;;;;5081885;28;20025;-78
2022/05/28 11:40:06;;;;;;;5.20;1.27;;;17.10;94.90;;;;;;5071630;28;20468;-77
2022/05/28 11:42:35;;;;;;;7.45;1.10;;;16.90;95.00;;;;;;5072451;28;20043;-76
2022/05/28 11:45:04;;;;;;;6.25;1.63;;;17.40;94.10;;;;;;5072544;28;20032;-77
2022/05/28 11:47:50;;;;;;;8.82;1.52;;;18.40;94.20;;;;;;5072385;28;20073;-76
2022/05/28 11:53:28;;;;;;;8.05;1.40;;;18.70;93.00;;;;;;5062952;28;20486;-76
2022/05/28 11:55:58;;;;;;;3.83;1.10;;;18.70;92.60;;;;;;5071819;28;20460;-76
2022/05/28 11:58:36;;;;;;;7.55;1.58;;;18.70;92.20;;;;;;5072536;28;20024;-75
2022/05/28 12:01:10;;;;;;;5.78;1.38;;;19.40;92.90;;;;;;5072161;28;20033;-76
2022/05/28 12:03:37;;;;;;;6.43;1.30;;;18.60;92.80;;;;;;5079637;28;20047;-75
2022/05/28 12:06:03;;;;;;;8.50;1.73;;;18.30;92.50;;;;;;5070723;28;20025;-74
2022/05/28 12:08:57;;;;;;;10.50;1.67;;;18.60;92.80;;;;;;5072203;28;20037;-76
2022/05/28 12:12:02;;;;;;;7.43;1.77;;;18.60;92.00;;;;;;5068651;28;20040;-76
2022/05/28 12:14:37;;;;;;;10.55;1.30;;;19.20;92.80;;;;;;5072172;28;20028;-77
2022/05/28 12:17:23;;;;;;;7.35;1.63;;;19.60;91.10;;;;;;5073387;28;20024;-77
2022/05/28 12:19:56;;;;;;;7.65;1.25;;;19.20;91.20;;;;;;5071885;28;20457;-77
2022/05/28 12:22:39;;;;;;;10.02;2.08;;;18.60;92.40;;;;;;5072411;28;20047;-77
2022/05/28 12:25:11;;;;;;;8.18;1.38;;;18.40;92.50;;;;;;5083383;28;20064;-77
2022/05/28 12:27:47;;;;;;;8.77;1.63;;;18.40;92.60;;;;;;5072078;28;20049;-79
2022/05/28 12:30:37;;;;;;;6.88;1.23;;;18.30;91.80;;;;;;5087656;28;20028;-78
2022/05/28 12:33:04;;;;;;;8.32;1.55;;;18.20;91.70;;;;;;5092777;28;20024;-78
2022/05/28 12:35:48;;;;;;;8.50;1.23;;;18.50;92.60;;;;;;5091780;28;20023;-79
2022/05/28 12:38:30;;;;;;;7.38;1.60;;;19.30;91.90;;;;;;5091894;28;20480;-78
2022/05/28 12:41:00;;;;;;;4.78;1.17;;;19.30;90.10;;;;;;5090768;28;20032;-78
2022/05/28 12:43:34;;;;;;;7.65;1.48;;;19.30;90.50;;;;;;5092533;28;20032;-77
2022/05/28 12:46:35;;;;;;;7.57;1.50;;;18.60;90.70;;;;;;5092107;28;20082;-77
2022/05/28 12:49:09;;;;;;;6.90;1.65;;;18.60;90.80;;;;;;5089830;28;20533;-77
2022/05/28 12:52:03;;;;;;;8.82;1.58;;;19.60;91.40;;;;;;5091448;28;20047;-77
2022/05/28 12:54:34;;;;;;;10.90;1.70;;;20.10;91.40;;;;;;5091856;28;20043;-78
2022/05/28 12:57:11;;;;;;;10.68;1.67;;;19.60;91.10;;;;;;5090721;28;20047;-78
2022/05/28 12:59:44;;;;;;;4.65;1.70;;;20.00;91.20;;;;;;5090609;28;20028;-78
2022/05/28 13:02:15;;;;;;;14.05;1.45;;;20.20;91.80;;;;;;5091589;28;20051;-78
2022/05/28 13:04:43;;;;;;;;;;;19.90;90.90;;;;;;5092449;28;20013;-77
2022/05/28 13:07:21;;;;;;;8.55;1.67;;;19.50;91.10;;;;;;5092603;28;20348;-77
2022/05/28 13:09:50;;;;;;;8.27;1.45;;;19.80;91.70;;;;;;5095804;28;20032;-78
2022/05/28 13:12:28;;;;;;;6.70;1.52;;;19.30;91.90;;;;;;5095688;28;20035;-78